Hyundai Forward — 3EJY9 — position and weather

sailwx.info

Track history (hours):
 
Tides and Currents Weather Stations Pressure Air Temp Water Temp Dewpoint Dewpoint Depression Visibility Wind Speed Wind Dir Waves Ship Positions

Hyundai Forward

Last reported at 2015-Jul-29 00:33 UTC. Time now 2015-Aug-04 21:56 UTC.
Position N 30°24' W 081°25'.

Length 295 m; draft 10.3 m.

Type: Cargo ship. MMSI: 372652000.

Date/timePositionNaut miles runAvg speedWind from/ knotsBaromVisibWave heightAir tempDewpointWater temp
2015-Jul-29 00:33N 30°24' W 081°25'6 6.3
2015-Jul-28 23:33N 30°23' W 081°33'34510.8
2015-Jul-27 15:29N 34°02' W 076°18'175 5.9
2015-Jul-26 09:33N 36°58' W 076°20'1312.4
2015-Jul-26 08:33N 36°58' W 076°05'11 9.3
2015-Jul-26 07:24N 36°53' W 075°53'1112.6
2015-Jul-26 06:31N 36°49' W 075°40'5513.0
2015-Jul-26 02:17N 37°28' W 074°51'1114.6
2015-Jul-26 01:31N 37°37' W 074°43'6014.4
2015-Jul-25 21:22N 38°31' W 074°11'3314.8
2015-Jul-25 19:09N 39°02' W 073°58'914.9
2015-Jul-25 18:34N 39°10' W 073°54'1514.8
2015-Jul-25 17:34N 39°25' W 073°53'1514.7
2015-Jul-25 16:34N 39°40' W 073°52'1514.6
2015-Jul-25 15:34N 39°54' W 073°51'1514.6
2015-Jul-25 14:34N 40°09' W 073°50'1514.6
2015-Jul-25 13:33N 40°24' W 073°49'1312.9
2015-Jul-25 12:33N 40°32' W 074°01'9 8.8
2015-Jul-25 11:34N 40°39' W 074°09'2 1.9
2015-Jul-25 10:32N 40°41' W 074°09'0 0.0
2015-Jul-25 09:32N 40°41' W 074°09'0 0.0
2015-Jul-25 08:32N 40°41' W 074°09'0 0.0
2015-Jul-25 07:32N 40°41' W 074°09'0 0.0
2015-Jul-25 06:32N 40°41' W 074°09'0 0.0
2015-Jul-25 05:32N 40°41' W 074°09'0 0.0
2015-Jul-25 04:32N 40°41' W 074°09'0 0.0
2015-Jul-25 03:32N 40°41' W 074°09'0 0.0
2015-Jul-25 02:32N 40°41' W 074°09'0 0.0
2015-Jul-25 01:32N 40°41' W 074°09'0 0.0
2015-Jul-25 00:32N 40°41' W 074°09'0 0.0
2015-Jul-24 23:32N 40°41' W 074°09'0 0.0
2015-Jul-24 22:32N 40°41' W 074°09'0 0.0
2015-Jul-24 21:32N 40°41' W 074°09'0 0.0
2015-Jul-24 20:32N 40°41' W 074°09'0 0.0
2015-Jul-24 19:32N 40°41' W 074°09'0 0.0
2015-Jul-24 18:32N 40°41' W 074°09'0 0.0
2015-Jul-24 17:32N 40°41' W 074°09'0 0.0
2015-Jul-24 16:32N 40°41' W 074°09'0 0.0
2015-Jul-24 15:32N 40°41' W 074°09'0 0.0
2015-Jul-24 14:32N 40°41' W 074°09'0 0.0
2015-Jul-24 13:32N 40°41' W 074°09'0 0.0
2015-Jul-24 12:32N 40°41' W 074°09'0 0.0
2015-Jul-24 11:32N 40°41' W 074°09'0 0.5
2015-Jul-24 10:33N 40°40' W 074°08'5 4.6
2015-Jul-24 09:33N 40°38' W 074°03'9 8.7
2015-Jul-24 08:33N 40°30' W 073°57'1010.2
2015-Jul-24 07:33N 40°24' W 073°47'8 8.5
2015-Jul-24 06:33N 40°16' W 073°46'1212.3
2015-Jul-24 05:33N 40°03' W 073°44'1212.3
2015-Jul-24 04:33N 39°51' W 073°42'1212.4
2015-Jul-24 03:33N 39°39' W 073°43'1312.5
2015-Jul-24 02:33N 39°26' W 073°47'1212.4
2015-Jul-24 01:33N 39°15' W 073°51'1712.2
2015-Jul-24 00:10N 38°58' W 073°53'812.0
2015-Jul-23 23:30N 38°50' W 073°56'34414.2
2015-Jul-22 23:18N 33°35' W 076°48'21514.5
2015-Jul-22 08:31N 31°58' W 080°36'1313.7
2015-Jul-22 07:33N 32°02' W 080°50'10 9.9
2015-Jul-22 06:33N 32°05' W 081°01'5 5.1
2015-Jul-22 05:33N 32°06' W 081°07'1 1.4
2015-Jul-22 04:31N 32°08' W 081°08'0 0.0
2015-Jul-22 03:31N 32°08' W 081°08'0 0.0
2015-Jul-22 02:31N 32°08' W 081°08'0 0.0
2015-Jul-22 01:31N 32°08' W 081°08'0 0.0
2015-Jul-22 00:31N 32°08' W 081°08'0 0.0
2015-Jul-21 23:31N 32°08' W 081°08'0 0.0
2015-Jul-21 22:31N 32°08' W 081°08'0 0.0
2015-Jul-21 21:31N 32°08' W 081°08'0 0.0
2015-Jul-21 20:31N 32°08' W 081°08'0 0.0
2015-Jul-21 19:31N 32°08' W 081°08'0 0.0
2015-Jul-21 18:28N 32°08' W 081°08'0 0.0
2015-Jul-21 17:31N 32°08' W 081°08'0 0.0
2015-Jul-21 16:31N 32°08' W 081°08'0 0.0
2015-Jul-21 15:31N 32°08' W 081°08'0 0.3
2015-Jul-21 14:33N 32°08' W 081°08'5 4.9
2015-Jul-21 13:33N 32°05' W 081°04'8 7.9
2015-Jul-21 12:33N 32°02' W 080°55'1111.3
2015-Jul-21 11:33N 31°58' W 080°43'1010.1
2015-Jul-21 10:33N 31°53' W 080°32'1514.7
2015-Jul-21 09:33N 31°40' W 080°23'  
Track history (hours):
 
Tides and Currents Weather Stations Pressure Air Temp Water Temp Dewpoint Dewpoint Depression Visibility Wind Speed Wind Dir Waves Ship Positions

Hyundai Forward

Last reported at 2015-Jul-29 00:33 UTC. Time now 2015-Aug-04 21:56 UTC.
Position N 30°24' W 081°25'.

Length 295 m; draft 10.3 m.

Type: Cargo ship. MMSI: 372652000.

Date/timePositionNaut miles runAvg speedWind from/ knotsBaromVisibWave heightAir tempDewpointWater temp
2015-Jul-29 00:33N 30°24' W 081°25'6 6.3
2015-Jul-28 23:33N 30°23' W 081°33'34510.8
2015-Jul-27 15:29N 34°02' W 076°18'175 5.9
2015-Jul-26 09:33N 36°58' W 076°20'1312.4
2015-Jul-26 08:33N 36°58' W 076°05'11 9.3
2015-Jul-26 07:24N 36°53' W 075°53'1112.6
2015-Jul-26 06:31N 36°49' W 075°40'5513.0
2015-Jul-26 02:17N 37°28' W 074°51'1114.6
2015-Jul-26 01:31N 37°37' W 074°43'6014.4
2015-Jul-25 21:22N 38°31' W 074°11'3314.8
2015-Jul-25 19:09N 39°02' W 073°58'914.9
2015-Jul-25 18:34N 39°10' W 073°54'1514.8
2015-Jul-25 17:34N 39°25' W 073°53'1514.7
2015-Jul-25 16:34N 39°40' W 073°52'1514.6
2015-Jul-25 15:34N 39°54' W 073°51'1514.6
2015-Jul-25 14:34N 40°09' W 073°50'1514.6
2015-Jul-25 13:33N 40°24' W 073°49'1312.9
2015-Jul-25 12:33N 40°32' W 074°01'9 8.8
2015-Jul-25 11:34N 40°39' W 074°09'2 1.9
2015-Jul-25 10:32N 40°41' W 074°09'0 0.0
2015-Jul-25 09:32N 40°41' W 074°09'0 0.0
2015-Jul-25 08:32N 40°41' W 074°09'0 0.0
2015-Jul-25 07:32N 40°41' W 074°09'0 0.0
2015-Jul-25 06:32N 40°41' W 074°09'0 0.0
2015-Jul-25 05:32N 40°41' W 074°09'0 0.0
2015-Jul-25 04:32N 40°41' W 074°09'0 0.0
2015-Jul-25 03:32N 40°41' W 074°09'0 0.0
2015-Jul-25 02:32N 40°41' W 074°09'0 0.0
2015-Jul-25 01:32N 40°41' W 074°09'0 0.0
2015-Jul-25 00:32N 40°41' W 074°09'0 0.0
2015-Jul-24 23:32N 40°41' W 074°09'0 0.0
2015-Jul-24 22:32N 40°41' W 074°09'0 0.0
2015-Jul-24 21:32N 40°41' W 074°09'0 0.0
2015-Jul-24 20:32N 40°41' W 074°09'0 0.0
2015-Jul-24 19:32N 40°41' W 074°09'0 0.0
2015-Jul-24 18:32N 40°41' W 074°09'0 0.0
2015-Jul-24 17:32N 40°41' W 074°09'0 0.0
2015-Jul-24 16:32N 40°41' W 074°09'0 0.0
2015-Jul-24 15:32N 40°41' W 074°09'0 0.0
2015-Jul-24 14:32N 40°41' W 074°09'0 0.0
2015-Jul-24 13:32N 40°41' W 074°09'0 0.0
2015-Jul-24 12:32N 40°41' W 074°09'0 0.0
2015-Jul-24 11:32N 40°41' W 074°09'0 0.5
2015-Jul-24 10:33N 40°40' W 074°08'5 4.6
2015-Jul-24 09:33N 40°38' W 074°03'9 8.7
2015-Jul-24 08:33N 40°30' W 073°57'1010.2
2015-Jul-24 07:33N 40°24' W 073°47'8 8.5
2015-Jul-24 06:33N 40°16' W 073°46'1212.3
2015-Jul-24 05:33N 40°03' W 073°44'1212.3
2015-Jul-24 04:33N 39°51' W 073°42'1212.4
2015-Jul-24 03:33N 39°39' W 073°43'1312.5
2015-Jul-24 02:33N 39°26' W 073°47'1212.4
2015-Jul-24 01:33N 39°15' W 073°51'1712.2
2015-Jul-24 00:10N 38°58' W 073°53'812.0
2015-Jul-23 23:30N 38°50' W 073°56'34414.2
2015-Jul-22 23:18N 33°35' W 076°48'21514.5
2015-Jul-22 08:31N 31°58' W 080°36'1313.7
2015-Jul-22 07:33N 32°02' W 080°50'10 9.9
2015-Jul-22 06:33N 32°05' W 081°01'5 5.1
2015-Jul-22 05:33N 32°06' W 081°07'1 1.4
2015-Jul-22 04:31N 32°08' W 081°08'0 0.0
2015-Jul-22 03:31N 32°08' W 081°08'0 0.0
2015-Jul-22 02:31N 32°08' W 081°08'0 0.0
2015-Jul-22 01:31N 32°08' W 081°08'0 0.0
2015-Jul-22 00:31N 32°08' W 081°08'0 0.0
2015-Jul-21 23:31N 32°08' W 081°08'0 0.0
2015-Jul-21 22:31N 32°08' W 081°08'0 0.0
2015-Jul-21 21:31N 32°08' W 081°08'0 0.0
2015-Jul-21 20:31N 32°08' W 081°08'0 0.0
2015-Jul-21 19:31N 32°08' W 081°08'0 0.0
2015-Jul-21 18:28N 32°08' W 081°08'0 0.0
2015-Jul-21 17:31N 32°08' W 081°08'0 0.0
2015-Jul-21 16:31N 32°08' W 081°08'0 0.0
2015-Jul-21 15:31N 32°08' W 081°08'0 0.3
2015-Jul-21 14:33N 32°08' W 081°08'5 4.9
2015-Jul-21 13:33N 32°05' W 081°04'8 7.9
2015-Jul-21 12:33N 32°02' W 080°55'1111.3
2015-Jul-21 11:33N 31°58' W 080°43'1010.1
2015-Jul-21 10:33N 31°53' W 080°32'1514.7
2015-Jul-21 09:33N 31°40' W 080°23'  

Dump ship's entire track history